sensor_id;sensor_type;location;lat;lon;timestamp;pressure;altitude;pressure_sealevel;temperature;humidity
45523;BME280;31254;51.680;5.394;2023-03-01T00:01:42;103189.84;;;-1.24;59.33
45523;BME280;31254;51.680;5.394;2023-03-01T00:04:08;103220.09;;;-1.13;59.37
45523;BME280;31254;51.680;5.394;2023-03-01T00:06:37;103165.06;;;-1.44;59.54
45523;BME280;31254;51.680;5.394;2023-03-01T00:09:04;103216.56;;;-1.16;59.55
45523;BME280;31254;51.680;5.394;2023-03-01T00:11:39;103189.06;;;-1.35;59.66
45523;BME280;31254;51.680;5.394;2023-03-01T00:14:05;103203.25;;;-1.25;59.63
45523;BME280;31254;51.680;5.394;2023-03-01T00:16:41;103186.47;;;-1.44;59.41
45523;BME280;31254;51.680;5.394;2023-03-01T00:19:15;103197.13;;;-1.38;59.40
45523;BME280;31254;51.680;5.394;2023-03-01T00:21:42;103137.69;;;-1.73;60.02
45523;BME280;31254;51.680;5.394;2023-03-01T00:24:11;103210.53;;;-1.38;59.81
45523;BME280;31254;51.680;5.394;2023-03-01T00:26:38;103214.03;;;-1.33;59.70
45523;BME280;31254;51.680;5.394;2023-03-01T00:29:04;103191.94;;;-1.52;59.95
45523;BME280;31254;51.680;5.394;2023-03-01T00:31:33;103198.13;;;-1.47;60.52
45523;BME280;31254;51.680;5.394;2023-03-01T00:34:04;103213.22;;;-1.40;60.33
45523;BME280;31254;51.680;5.394;2023-03-01T00:36:34;103201.75;;;-1.56;59.81
45523;BME280;31254;51.680;5.394;2023-03-01T00:39:02;103218.59;;;-1.44;60.29
45523;BME280;31254;51.680;5.394;2023-03-01T00:41:30;103170.72;;;-1.77;60.36
45523;BME280;31254;51.680;5.394;2023-03-01T00:43:57;103219.59;;;-1.52;60.64
45523;BME280;31254;51.680;5.394;2023-03-01T00:46:27;103205.38;;;-1.58;60.89
45523;BME280;31254;51.680;5.394;2023-03-01T00:48:59;103200.94;;;-1.64;61.14
45523;BME280;31254;51.680;5.394;2023-03-01T00:51:29;103188.53;;;-1.71;61.09
45523;BME280;31254;51.680;5.394;2023-03-01T00:54:00;103198.25;;;-1.62;60.96
45523;BME280;31254;51.680;5.394;2023-03-01T00:56:29;103154.81;;;-1.94;61.55
45523;BME280;31254;51.680;5.394;2023-03-01T00:58:57;103183.19;;;-1.74;61.49
45523;BME280;31254;51.680;5.394;2023-03-01T01:01:27;103195.63;;;-1.69;61.96
45523;BME280;31254;51.680;5.394;2023-03-01T01:04:02;103172.59;;;-1.88;61.53
45523;BME280;31254;51.680;5.394;2023-03-01T01:06:31;103189.41;;;-1.72;62.31
45523;BME280;31254;51.680;5.394;2023-03-01T01:09:02;103184.09;;;-1.78;61.57
45523;BME280;31254;51.680;5.394;2023-03-01T01:11:29;103186.78;;;-1.78;61.64
45523;BME280;31254;51.680;5.394;2023-03-01T01:13:57;103116.69;;;-2.21;61.41
45523;BME280;31254;51.680;5.394;2023-03-01T01:16:26;103157.50;;;-1.94;61.59
45523;BME280;31254;51.680;5.394;2023-03-01T01:18:56;103132.66;;;-2.08;61.50
45523;BME280;31254;51.680;5.394;2023-03-01T01:21:24;103173.47;;;-1.83;62.06
45523;BME280;31254;51.680;5.394;2023-03-01T01:23:51;103169.00;;;-1.84;61.68
45523;BME280;31254;51.680;5.394;2023-03-01T01:26:24;103157.47;;;-1.91;61.83
45523;BME280;31254;51.680;5.394;2023-03-01T01:28:51;103124.63;;;-2.11;61.63
45523;BME280;31254;51.680;5.394;2023-03-01T01:31:23;103131.75;;;-2.06;62.11
45523;BME280;31254;51.680;5.394;2023-03-01T01:33:53;103159.31;;;-1.97;62.19
45523;BME280;31254;51.680;5.394;2023-03-01T01:36:23;103152.16;;;-1.95;62.45
45523;BME280;31254;51.680;5.394;2023-03-01T01:38:52;103129.97;;;-2.07;62.17
45523;BME280;31254;51.680;5.394;2023-03-01T01:41:24;103109.56;;;-2.18;62.37
45523;BME280;31254;51.680;5.394;2023-03-01T01:46:39;103157.53;;;-1.98;61.64
45523;BME280;31254;51.680;5.394;2023-03-01T01:49:27;103146.00;;;-2.04;61.17
45523;BME280;31254;51.680;5.394;2023-03-01T01:52:04;103042.09;;;-2.58;61.54
45523;BME280;31254;51.680;5.394;2023-03-01T01:57:14;103130.81;;;-2.03;61.33
45523;BME280;31254;51.680;5.394;2023-03-01T01:59:47;103087.34;;;-2.28;61.36
45523;BME280;31254;51.680;5.394;2023-03-01T02:02:15;103138.81;;;-2.00;61.17
45523;BME280;31254;51.680;5.394;2023-03-01T02:04:42;103127.28;;;-2.05;61.57
45523;BME280;31254;51.680;5.394;2023-03-01T02:07:21;103129.03;;;-2.04;61.67
45523;BME280;31254;51.680;5.394;2023-03-01T02:09:51;103095.28;;;-2.22;61.70
45523;BME280;31254;51.680;5.394;2023-03-01T02:12:23;103065.16;;;-2.40;61.50
45523;BME280;31254;51.680;5.394;2023-03-01T02:14:50;103087.34;;;-2.27;61.33
45523;BME280;31254;51.680;5.394;2023-03-01T02:17:17;103091.72;;;-2.19;61.23
45523;BME280;31254;51.680;5.394;2023-03-01T02:20:21;103123.66;;;-2.04;60.72
45523;BME280;31254;51.680;5.394;2023-03-01T02:22:51;103127.25;;;-2.02;60.63
45523;BME280;31254;51.680;5.394;2023-03-01T02:30:38;103099.75;;;-2.21;61.32
45523;BME280;31254;51.680;5.394;2023-03-01T02:33:26;103117.50;;;-2.12;61.73
45523;BME280;31254;51.680;5.394;2023-03-01T02:35:54;103060.78;;;-2.51;61.04
45523;BME280;31254;51.680;5.394;2023-03-01T02:38:22;103088.25;;;-2.31;61.30
45523;BME280;31254;51.680;5.394;2023-03-01T02:40:52;103116.63;;;-2.13;61.18
45523;BME280;31254;51.680;5.394;2023-03-01T02:43:24;103132.66;;;-2.11;61.42
45523;BME280;31254;51.680;5.394;2023-03-01T02:45:57;103105.09;;;-2.18;61.51
45523;BME280;31254;51.680;5.394;2023-03-01T02:48:27;103111.25;;;-2.11;61.95
45523;BME280;31254;51.680;5.394;2023-03-01T02:54:09;103108.53;;;-2.02;61.78
45523;BME280;31254;51.680;5.394;2023-03-01T02:56:38;103091.72;;;-2.18;61.88
45523;BME280;31254;51.680;5.394;2023-03-01T02:59:06;103111.22;;;-2.07;61.51
45523;BME280;31254;51.680;5.394;2023-03-01T03:01:33;103097.00;;;-2.10;61.55
45523;BME280;31254;51.680;5.394;2023-03-01T03:04:12;103118.25;;;-1.95;61.54
45523;BME280;31254;51.680;5.394;2023-03-01T03:06:52;103039.28;;;-2.39;61.88
45523;BME280;31254;51.680;5.394;2023-03-01T03:09:19;103100.50;;;-2.02;61.64
45523;BME280;31254;51.680;5.394;2023-03-01T03:11:46;103115.56;;;-1.93;61.68
45523;BME280;31254;51.680;5.394;2023-03-01T03:14:15;103115.56;;;-1.93;62.05
45523;BME280;31254;51.680;5.394;2023-03-01T03:16:44;103112.91;;;-1.95;62.23
45523;BME280;31254;51.680;5.394;2023-03-01T03:19:14;103107.63;;;-2.04;62.50
45523;BME280;31254;51.680;5.394;2023-03-01T03:21:41;103042.88;;;-2.42;61.78
45523;BME280;31254;51.680;5.394;2023-03-01T03:24:08;102981.66;;;-2.74;62.48
45523;BME280;31254;51.680;5.394;2023-03-01T03:26:34;103094.31;;;-2.10;62.43
45523;BME280;31254;51.680;5.394;2023-03-01T03:29:01;103061.53;;;-2.32;62.38
45523;BME280;31254;51.680;5.394;2023-03-01T03:31:27;103096.22;;;-2.22;62.74
45523;BME280;31254;51.680;5.394;2023-03-01T03:33:54;103080.25;;;-2.32;63.13
45523;BME280;31254;51.680;5.394;2023-03-01T03:36:25;103100.66;;;-2.24;62.94
45523;BME280;31254;51.680;5.394;2023-03-01T03:38:52;103010.19;;;-2.79;62.79
45523;BME280;31254;51.680;5.394;2023-03-01T03:41:18;103077.66;;;-2.46;63.40
45523;BME280;31254;51.680;5.394;2023-03-01T03:43:45;103102.50;;;-2.32;63.88
45523;BME280;31254;51.680;5.394;2023-03-01T03:46:12;103083.91;;;-2.47;63.21
45523;BME280;31254;51.680;5.394;2023-03-01T03:48:44;103109.69;;;-2.37;64.32
45523;BME280;31254;51.680;5.394;2023-03-01T03:51:12;103100.81;;;-2.42;63.82
45523;BME280;31254;51.680;5.394;2023-03-01T03:53:39;103027.16;;;-2.80;63.79
45523;BME280;31254;51.680;5.394;2023-03-01T03:56:10;103091.94;;;-2.44;63.96
45523;BME280;31254;51.680;5.394;2023-03-01T03:58:37;103086.59;;;-2.47;63.91
45523;BME280;31254;51.680;5.394;2023-03-01T04:01:03;103066.16;;;-2.58;64.23
45523;BME280;31254;51.680;5.394;2023-03-01T04:03:33;103086.56;;;-2.44;64.34
45523;BME280;31254;51.680;5.394;2023-03-01T04:06:02;103085.66;;;-2.45;64.24
45523;BME280;31254;51.680;5.394;2023-03-01T04:08:30;103076.78;;;-2.47;64.98
45523;BME280;31254;51.680;5.394;2023-03-01T04:11:05;103073.25;;;-2.49;64.81
45523;BME280;31254;51.680;5.394;2023-03-01T04:13:51;103079.47;;;-2.48;63.87
45523;BME280;31254;51.680;5.394;2023-03-01T04:16:19;103084.81;;;-2.48;64.93
45523;BME280;31254;51.680;5.394;2023-03-01T04:18:46;103067.94;;;-2.55;64.87
45523;BME280;31254;51.680;5.394;2023-03-01T04:21:13;103068.78;;;-2.50;64.73
45523;BME280;31254;51.680;5.394;2023-03-01T04:23:40;103060.88;;;-2.61;64.28
45523;BME280;31254;51.680;5.394;2023-03-01T04:26:07;103082.16;;;-2.53;64.61
45523;BME280;31254;51.680;5.394;2023-03-01T04:28:35;103072.38;;;-2.52;64.98
45523;BME280;31254;51.680;5.394;2023-03-01T04:31:05;103074.16;;;-2.53;64.31
45523;BME280;31254;51.680;5.394;2023-03-01T04:33:45;103070.59;;;-2.53;64.87
45523;BME280;31254;51.680;5.394;2023-03-01T04:36:16;103077.72;;;-2.52;64.88
45523;BME280;31254;51.680;5.394;2023-03-01T04:38:44;103067.03;;;-2.52;64.27
45523;BME280;31254;51.680;5.394;2023-03-01T04:41:16;103066.13;;;-2.51;63.68
45523;BME280;31254;51.680;5.394;2023-03-01T04:43:43;103070.59;;;-2.53;63.68
45523;BME280;31254;51.680;5.394;2023-03-01T04:46:14;103063.47;;;-2.54;63.93
45523;BME280;31254;51.680;5.394;2023-03-01T04:48:45;103059.09;;;-2.63;64.22
45523;BME280;31254;51.680;5.394;2023-03-01T04:51:17;103063.53;;;-2.59;64.50
45523;BME280;31254;51.680;5.394;2023-03-01T04:53:44;103064.41;;;-2.60;65.00
45523;BME280;31254;51.680;5.394;2023-03-01T04:56:12;103049.34;;;-2.69;64.30
45523;BME280;31254;51.680;5.394;2023-03-01T04:58:40;103035.97;;;-2.69;64.32
45523;BME280;31254;51.680;5.394;2023-03-01T05:01:14;103040.44;;;-2.71;64.39
45523;BME280;31254;51.680;5.394;2023-03-01T05:03:47;102981.06;;;-3.15;64.79
45523;BME280;31254;51.680;5.394;2023-03-01T05:06:14;103039.59;;;-2.78;65.28
45523;BME280;31254;51.680;5.394;2023-03-01T05:08:42;103033.41;;;-2.86;65.28
45523;BME280;31254;51.680;5.394;2023-03-01T05:11:10;103044.06;;;-2.81;64.88
45523;BME280;31254;51.680;5.394;2023-03-01T05:13:38;103043.19;;;-2.80;65.47
45523;BME280;31254;51.680;5.394;2023-03-01T05:16:06;103045.84;;;-2.80;64.85
45523;BME280;31254;51.680;5.394;2023-03-01T05:18:38;102994.34;;;-3.04;65.51
45523;BME280;31254;51.680;5.394;2023-03-01T05:21:10;103015.66;;;-2.93;65.32
45523;BME280;31254;51.680;5.394;2023-03-01T05:23:38;103012.09;;;-2.97;65.35
45523;BME280;31254;51.680;5.394;2023-03-01T05:26:06;102994.34;;;-3.05;65.58
45523;BME280;31254;51.680;5.394;2023-03-01T05:28:48;103024.53;;;-2.89;66.07
45523;BME280;31254;51.680;5.394;2023-03-01T05:31:16;102973.94;;;-3.14;65.27
45523;BME280;31254;51.680;5.394;2023-03-01T05:33:45;103017.41;;;-2.92;65.62
45523;BME280;31254;51.680;5.394;2023-03-01T05:36:14;103012.06;;;-2.94;66.00
45523;BME280;31254;51.680;5.394;2023-03-01T05:38:43;102987.22;;;-3.02;65.48
45523;BME280;31254;51.680;5.394;2023-03-01T05:41:14;102992.53;;;-3.00;66.49
45523;BME280;31254;51.680;5.394;2023-03-01T05:43:43;103002.31;;;-2.98;66.08
45523;BME280;31254;51.680;5.394;2023-03-01T05:46:11;103008.53;;;-2.92;66.48
45523;BME280;31254;51.680;5.394;2023-03-01T05:48:39;102995.19;;;-2.94;66.65
45523;BME280;31254;51.680;5.394;2023-03-01T05:51:09;102999.63;;;-2.95;66.39
45523;BME280;31254;51.680;5.394;2023-03-01T05:53:36;103001.41;;;-2.95;66.66
45523;BME280;31254;51.680;5.394;2023-03-01T05:56:03;102998.72;;;-2.95;66.75
45523;BME280;31254;51.680;5.394;2023-03-01T05:58:30;102945.53;;;-3.29;66.40
45523;BME280;31254;51.680;5.394;2023-03-01T06:00:57;102989.88;;;-3.02;67.26
45523;BME280;31254;51.680;5.394;2023-03-01T06:03:26;102995.25;;;-3.08;66.81
45523;BME280;31254;51.680;5.394;2023-03-01T06:05:56;102995.25;;;-3.08;66.93
45523;BME280;31254;51.680;5.394;2023-03-01T06:08:25;102962.47;;;-3.27;66.27
45523;BME280;31254;51.680;5.394;2023-03-01T06:10:56;102952.69;;;-3.31;66.66
45523;BME280;31254;51.680;5.394;2023-03-01T06:13:23;102997.88;;;-3.02;67.05
45523;BME280;31254;51.680;5.394;2023-03-01T06:15:50;103006.81;;;-3.01;66.71
45523;BME280;31254;51.680;5.394;2023-03-01T06:18:16;102999.66;;;-2.98;67.40
45523;BME280;31254;51.680;5.394;2023-03-01T06:20:43;103003.22;;;-2.99;66.70
45523;BME280;31254;51.680;5.394;2023-03-01T06:23:12;102978.41;;;-3.16;67.53
45523;BME280;31254;51.680;5.394;2023-03-01T06:25:38;103013.00;;;-2.98;67.04
45523;BME280;31254;51.680;5.394;2023-03-01T06:28:05;103005.91;;;-3.03;67.23
45523;BME280;31254;51.680;5.394;2023-03-01T06:30:32;102988.19;;;-3.12;67.08
45523;BME280;31254;51.680;5.394;2023-03-01T06:33:01;103002.31;;;-2.98;66.95
45523;BME280;31254;51.680;5.394;2023-03-01T06:35:29;103007.66;;;-2.96;66.58
45523;BME280;31254;51.680;5.394;2023-03-01T06:37:57;103010.31;;;-2.95;66.90
45523;BME280;31254;51.680;5.394;2023-03-01T06:40:24;102997.91;;;-3.03;66.92
45523;BME280;31254;51.680;5.394;2023-03-01T06:42:54;103010.31;;;-2.93;66.57
45523;BME280;31254;51.680;5.394;2023-03-01T06:45:21;103021.00;;;-2.91;66.99
45523;BME280;31254;51.680;5.394;2023-03-01T06:47:48;102856.00;;;-3.78;66.40
45523;BME280;31254;51.680;5.394;2023-03-01T06:50:15;103004.91;;;-2.85;66.26
45523;BME280;31254;51.680;5.394;2023-03-01T06:52:45;103002.25;;;-2.88;66.75
45523;BME280;31254;51.680;5.394;2023-03-01T06:55:12;103003.13;;;-2.85;67.14
45523;BME280;31254;51.680;5.394;2023-03-01T06:57:39;102999.56;;;-2.87;66.78
45523;BME280;31254;51.680;5.394;2023-03-01T07:00:06;102996.88;;;-2.85;66.88
45523;BME280;31254;51.680;5.394;2023-03-01T07:02:34;103011.00;;;-2.65;65.88
45523;BME280;31254;51.680;5.394;2023-03-01T07:05:01;103018.03;;;-2.58;66.31
45523;BME280;31254;51.680;5.394;2023-03-01T07:07:27;103009.13;;;-2.57;66.17
45523;BME280;31254;51.680;5.394;2023-03-01T07:09:57;103000.22;;;-2.55;66.40
45523;BME280;31254;51.680;5.394;2023-03-01T07:12:26;103016.16;;;-2.45;66.23
45523;BME280;31254;51.680;5.394;2023-03-01T07:14:52;102993.97;;;-2.54;66.79
45523;BME280;31254;51.680;5.394;2023-03-01T07:17:19;102996.59;;;-2.47;67.00
45523;BME280;31254;51.680;5.394;2023-03-01T07:19:46;103002.75;;;-2.42;66.28
45523;BME280;31254;51.680;5.394;2023-03-01T07:22:13;103006.19;;;-2.27;66.13
45523;BME280;31254;51.680;5.394;2023-03-01T07:24:42;103002.66;;;-2.28;66.63
45523;BME280;31254;51.680;5.394;2023-03-01T07:27:11;103000.75;;;-2.16;66.11
45523;BME280;31254;51.680;5.394;2023-03-01T07:29:37;102999.81;;;-2.14;66.02
45523;BME280;31254;51.680;5.394;2023-03-01T07:32:05;103006.84;;;-1.99;66.58
45523;BME280;31254;51.680;5.394;2023-03-01T07:34:32;102985.44;;;-2.00;66.38
45523;BME280;31254;51.680;5.394;2023-03-01T07:36:59;102987.09;;;-1.89;66.10
45523;BME280;31254;51.680;5.394;2023-03-01T07:39:26;102978.97;;;-1.81;66.10
45523;BME280;31254;51.680;5.394;2023-03-01T07:41:55;102989.50;;;-1.67;65.82
45523;BME280;31254;51.680;5.394;2023-03-01T07:44:24;102886.69;;;-2.21;65.96
45523;BME280;31254;51.680;5.394;2023-03-01T07:46:51;103012.47;;;-1.48;66.11
45523;BME280;31254;51.680;5.394;2023-03-01T07:49:22;103006.97;;;-1.37;66.12
45523;BME280;31254;51.680;5.394;2023-03-01T07:51:49;103001.59;;;-1.35;66.10
45523;BME280;31254;51.680;5.394;2023-03-01T07:54:18;103003.34;;;-1.31;65.81
45523;BME280;31254;51.680;5.394;2023-03-01T07:56:45;103012.03;;;-1.15;65.87
45523;BME280;31254;51.680;5.394;2023-03-01T07:59:11;102991.31;;;-1.04;68.38
45523;BME280;31254;51.680;5.394;2023-03-01T08:01:38;102988.66;;;-1.05;67.63
45523;BME280;31254;51.680;5.394;2023-03-01T08:04:10;103002.75;;;-0.91;66.94
45523;BME280;31254;51.680;5.394;2023-03-01T08:06:37;102996.44;;;-0.85;65.97
45523;BME280;31254;51.680;5.394;2023-03-01T08:09:09;102985.69;;;-0.84;66.10
45523;BME280;31254;51.680;5.394;2023-03-01T08:11:35;103004.13;;;-0.65;66.67
45523;BME280;31254;51.680;5.394;2023-03-01T08:14:02;102996.09;;;-0.65;65.78
45523;BME280;31254;51.680;5.394;2023-03-01T08:16:29;103024.31;;;-0.41;66.28
45523;BME280;31254;51.680;5.394;2023-03-01T08:19:06;102905.59;;;-1.05;65.34
45523;BME280;31254;51.680;5.394;2023-03-01T08:21:33;103011.63;;;-0.33;65.79
45523;BME280;31254;51.680;5.394;2023-03-01T08:24:06;103011.53;;;-0.27;66.05
45523;BME280;31254;51.680;5.394;2023-03-01T08:26:36;103010.38;;;-0.12;65.97
45523;BME280;31254;51.680;5.394;2023-03-01T08:29:03;103006.75;;;-0.09;65.64
45523;BME280;31254;51.680;5.394;2023-03-01T08:31:35;102994.09;;;-0.01;65.63
45523;BME280;31254;51.680;5.394;2023-03-01T08:34:10;103004.56;;;0.11;65.55
45523;BME280;31254;51.680;5.394;2023-03-01T08:36:42;102991.88;;;0.21;65.40
45523;BME280;31254;51.680;5.394;2023-03-01T08:39:14;102982.88;;;0.22;65.38
45523;BME280;31254;51.680;5.394;2023-03-01T08:41:42;102992.31;;;0.43;65.12
45523;BME280;31254;51.680;5.394;2023-03-01T08:44:10;102953.16;;;0.31;65.03
45523;BME280;31254;51.680;5.394;2023-03-01T08:46:40;102999.06;;;0.61;64.86
45523;BME280;31254;51.680;5.394;2023-03-01T08:49:12;102996.09;;;0.75;64.58
45523;BME280;31254;51.680;5.394;2023-03-01T08:51:39;102962.25;;;0.66;64.37
45523;BME280;31254;51.680;5.394;2023-03-01T08:54:09;102979.59;;;0.92;64.64
45523;BME280;31254;51.680;5.394;2023-03-01T08:56:38;102982.91;;;1.03;64.40
45523;BME280;31254;51.680;5.394;2023-03-01T08:59:05;102961.47;;;1.00;64.34
45523;BME280;31254;51.680;5.394;2023-03-01T09:01:32;102960.34;;;1.11;63.75
45523;BME280;31254;51.680;5.394;2023-03-01T09:03:59;102984.03;;;1.31;64.12
45523;BME280;31254;51.680;5.394;2023-03-01T09:06:26;102981.94;;;1.43;63.90
45523;BME280;31254;51.680;5.394;2023-03-01T09:08:53;102977.84;;;1.96;62.70
45523;BME280;31254;51.680;5.394;2023-03-01T09:11:22;102912.06;;;2.94;59.10
45523;BME280;31254;51.680;5.394;2023-03-01T09:13:51;102955.44;;;4.18;56.95
45523;BME280;31254;51.680;5.394;2023-03-01T09:16:20;102955.03;;;4.76;54.78
45523;BME280;31254;51.680;5.394;2023-03-01T09:18:53;102955.94;;;4.99;54.57
45523;BME280;31254;51.680;5.394;2023-03-01T09:21:22;102950.63;;;4.96;55.06
45523;BME280;31254;51.680;5.394;2023-03-01T09:24:13;102945.59;;;5.09;54.94
45523;BME280;31254;51.680;5.394;2023-03-01T09:26:44;102936.72;;;5.27;53.92
45523;BME280;31254;51.680;5.394;2023-03-01T09:29:17;102951.59;;;5.17;54.11
45523;BME280;31254;51.680;5.394;2023-03-01T09:31:44;102949.25;;;5.08;54.30
45523;BME280;31254;51.680;5.394;2023-03-01T09:34:12;102931.75;;;4.94;55.07
45523;BME280;31254;51.680;5.394;2023-03-01T09:36:42;102932.75;;;5.14;55.10
45523;BME280;31254;51.680;5.394;2023-03-01T09:39:13;102916.53;;;5.14;54.82
45523;BME280;31254;51.680;5.394;2023-03-01T09:41:44;102932.16;;;5.28;55.01
45523;BME280;31254;51.680;5.394;2023-03-01T09:44:29;102931.66;;;5.40;54.52
45523;BME280;31254;51.680;5.394;2023-03-01T09:47:01;102917.53;;;5.54;54.68
45523;BME280;31254;51.680;5.394;2023-03-01T09:49:31;102911.00;;;5.17;53.08
45523;BME280;31254;51.680;5.394;2023-03-01T09:55:11;102876.50;;;5.22;53.17
45523;BME280;31254;51.680;5.394;2023-03-01T09:57:49;102889.84;;;5.05;53.64
45523;BME280;31254;51.680;5.394;2023-03-01T10:02:49;102913.63;;;5.19;53.51
45523;BME280;31254;51.680;5.394;2023-03-01T10:08:19;102898.59;;;5.11;53.74
45523;BME280;31254;51.680;5.394;2023-03-01T10:10:51;102896.97;;;5.07;54.28
45523;BME280;31254;51.680;5.394;2023-03-01T10:13:29;102902.50;;;5.04;54.62
45523;BME280;31254;51.680;5.394;2023-03-01T10:16:05;102877.19;;;5.05;54.07
45523;BME280;31254;51.680;5.394;2023-03-01T10:18:36;102864.06;;;4.96;53.93
45523;BME280;31254;51.680;5.394;2023-03-01T10:21:14;102895.75;;;5.15;54.50
45523;BME280;31254;51.680;5.394;2023-03-01T10:23:43;102842.13;;;4.82;54.36
45523;BME280;31254;51.680;5.394;2023-03-01T10:36:42;102880.97;;;5.23;53.68
45523;BME280;31254;51.680;5.394;2023-03-01T10:39:16;102861.97;;;5.25;53.80
45523;BME280;31254;51.680;5.394;2023-03-01T10:42:20;102861.09;;;5.45;54.18
45523;BME280;31254;51.680;5.394;2023-03-01T10:44:49;102869.53;;;5.37;53.71
45523;BME280;31254;51.680;5.394;2023-03-01T10:47:22;102856.66;;;5.42;53.43
45523;BME280;31254;51.680;5.394;2023-03-01T10:49:55;102857.63;;;5.41;52.69
45523;BME280;31254;51.680;5.394;2023-03-01T10:52:29;102866.69;;;5.40;52.55
45523;BME280;31254;51.680;5.394;2023-03-01T10:57:44;102843.06;;;5.64;52.52
45523;BME280;31254;51.680;5.394;2023-03-01T11:00:25;102847.88;;;5.78;52.48
45523;BME280;31254;51.680;5.394;2023-03-01T11:05:26;102856.59;;;5.85;52.30
45523;BME280;31254;51.680;5.394;2023-03-01T11:07:56;102835.25;;;5.77;51.92
45523;BME280;31254;51.680;5.394;2023-03-01T11:10:26;102827.53;;;5.89;52.15
45523;BME280;31254;51.680;5.394;2023-03-01T11:12:54;102842.34;;;6.00;52.25
45523;BME280;31254;51.680;5.394;2023-03-01T11:15:34;102823.94;;;5.88;51.12
45523;BME280;31254;51.680;5.394;2023-03-01T11:18:02;102841.63;;;5.97;51.63
45523;BME280;31254;51.680;5.394;2023-03-01T11:20:41;102822.66;;;5.97;51.10
45523;BME280;31254;51.680;5.394;2023-03-01T11:23:14;102844.91;;;6.03;51.33
45523;BME280;31254;51.680;5.394;2023-03-01T11:25:43;102838.41;;;6.08;50.99
45523;BME280;31254;51.680;5.394;2023-03-01T11:28:17;102817.69;;;6.07;51.09
45523;BME280;31254;51.680;5.394;2023-03-01T11:33:55;102808.69;;;6.06;50.79
45523;BME280;31254;51.680;5.394;2023-03-01T11:36:41;102826.75;;;6.25;51.07
45523;BME280;31254;51.680;5.394;2023-03-01T11:39:32;102781.59;;;6.06;50.89
45523;BME280;31254;51.680;5.394;2023-03-01T11:42:15;102824.28;;;6.39;51.13
45523;BME280;31254;51.680;5.394;2023-03-01T11:44:47;102826.53;;;6.48;50.83
45523;BME280;31254;51.680;5.394;2023-03-01T11:55:23;102797.06;;;6.77;49.57
45523;BME280;31254;51.680;5.394;2023-03-01T11:58:19;102811.63;;;7.11;47.23
45523;BME280;31254;51.680;5.394;2023-03-01T12:01:14;102811.31;;;7.17;48.39
45523;BME280;31254;51.680;5.394;2023-03-01T12:06:35;102820.81;;;7.08;48.23
45523;BME280;31254;51.680;5.394;2023-03-01T12:17:40;102787.13;;;7.12;48.58
45523;BME280;31254;51.680;5.394;2023-03-01T12:20:26;102685.88;;;6.59;46.18
45523;BME280;31254;51.680;5.394;2023-03-01T12:25:52;102720.16;;;6.95;47.63
45523;BME280;31254;51.680;5.394;2023-03-01T12:31:15;102782.66;;;7.11;47.24
45523;BME280;31254;51.680;5.394;2023-03-01T12:39:29;102778.03;;;7.13;46.69
45523;BME280;31254;51.680;5.394;2023-03-01T12:45:12;102779.72;;;7.16;47.25
45523;BME280;31254;51.680;5.394;2023-03-01T12:47:52;102755.53;;;6.94;47.25
45523;BME280;31254;51.680;5.394;2023-03-01T12:50:32;102762.22;;;7.04;47.09
45523;BME280;31254;51.680;5.394;2023-03-01T12:53:03;102752.25;;;7.05;47.08
45523;BME280;31254;51.680;5.394;2023-03-01T12:55:39;102754.63;;;7.11;47.23
45523;BME280;31254;51.680;5.394;2023-03-01T13:31:03;102675.34;;;7.22;44.72
45523;BME280;31254;51.680;5.394;2023-03-01T13:36:04;102679.41;;;7.30;46.25
45523;BME280;31254;51.680;5.394;2023-03-01T13:41:10;102641.44;;;7.13;46.90
45523;BME280;31254;51.680;5.394;2023-03-01T13:43:43;102677.16;;;7.39;46.86
45523;BME280;31254;51.680;5.394;2023-03-01T13:46:20;102672.28;;;7.28;46.84
45523;BME280;31254;51.680;5.394;2023-03-01T13:48:53;102645.81;;;7.16;46.73
45523;BME280;31254;51.680;5.394;2023-03-01T13:51:31;102666.09;;;7.26;47.19
45523;BME280;31254;51.680;5.394;2023-03-01T13:54:05;102675.16;;;7.25;47.15
45523;BME280;31254;51.680;5.394;2023-03-01T13:56:38;102664.47;;;7.22;46.96
45523;BME280;31254;51.680;5.394;2023-03-01T13:59:16;102609.88;;;6.77;47.20
45523;BME280;31254;51.680;5.394;2023-03-01T14:01:43;102631.81;;;6.90;47.01
45523;BME280;31254;51.680;5.394;2023-03-01T14:04:34;102643.53;;;7.08;47.75
45523;BME280;31254;51.680;5.394;2023-03-01T14:07:50;102648.16;;;7.06;47.10
45523;BME280;31254;51.680;5.394;2023-03-01T14:10:16;102643.88;;;7.02;46.90
45523;BME280;31254;51.680;5.394;2023-03-01T14:16:19;102642.19;;;6.99;47.10
45523;BME280;31254;51.680;5.394;2023-03-01T14:19:04;102639.63;;;6.96;47.01
45523;BME280;31254;51.680;5.394;2023-03-01T14:21:46;102629.59;;;6.98;47.08
45523;BME280;31254;51.680;5.394;2023-03-01T14:24:20;102641.06;;;7.03;46.89
45523;BME280;31254;51.680;5.394;2023-03-01T14:26:49;102598.84;;;6.98;46.00
45523;BME280;31254;51.680;5.394;2023-03-01T14:29:56;102627.13;;;7.09;46.14
45523;BME280;31254;51.680;5.394;2023-03-01T14:32:31;102616.47;;;7.06;46.31
45523;BME280;31254;51.680;5.394;2023-03-01T14:34:59;102597.72;;;7.02;46.41
45523;BME280;31254;51.680;5.394;2023-03-01T14:37:27;102615.94;;;7.16;45.51
45523;BME280;31254;51.680;5.394;2023-03-01T14:39:58;102596.75;;;7.03;45.53
45523;BME280;31254;51.680;5.394;2023-03-01T14:42:34;102601.06;;;7.07;45.33
45523;BME280;31254;51.680;5.394;2023-03-01T14:45:07;102607.53;;;7.04;45.45
45523;BME280;31254;51.680;5.394;2023-03-01T14:47:53;102604.88;;;7.03;45.63
45523;BME280;31254;51.680;5.394;2023-03-01T14:50:34;102589.59;;;7.02;45.64
45523;BME280;31254;51.680;5.394;2023-03-01T14:53:36;102598.44;;;7.05;46.15
45523;BME280;31254;51.680;5.394;2023-03-01T14:56:19;102593.00;;;7.05;45.97
45523;BME280;31254;51.680;5.394;2023-03-01T14:58:53;102584.06;;;7.03;46.01
45523;BME280;31254;51.680;5.394;2023-03-01T15:01:46;102584.06;;;7.03;46.15
45523;BME280;31254;51.680;5.394;2023-03-01T15:04:28;102579.50;;;7.04;46.36
45523;BME280;31254;51.680;5.394;2023-03-01T15:07:03;102588.59;;;7.03;46.32
45523;BME280;31254;51.680;5.394;2023-03-01T15:09:35;102584.41;;;6.97;45.80
45523;BME280;31254;51.680;5.394;2023-03-01T15:15:22;102582.47;;;6.99;46.33